createdAt,value
2022-12-13T00:04:00.641Z,0.00
2022-12-13T00:19:00.513Z,0.00
2022-12-13T00:34:00.421Z,0.00
2022-12-13T00:49:00.212Z,0.00
2022-12-13T01:04:00.462Z,0.00
2022-12-13T01:19:00.602Z,0.00
2022-12-13T01:34:00.344Z,0.00
2022-12-13T01:49:00.306Z,0.00
2022-12-13T02:04:00.735Z,0.00
2022-12-13T02:19:00.505Z,0.00
2022-12-13T02:34:00.542Z,0.00
2022-12-13T02:49:02.153Z,0.00
2022-12-13T03:04:01.039Z,0.00
2022-12-13T03:19:00.553Z,0.00
2022-12-13T03:34:00.671Z,0.00
2022-12-13T03:49:00.710Z,0.00
2022-12-13T04:04:00.664Z,0.00
2022-12-13T04:19:00.831Z,0.00
2022-12-13T04:34:00.909Z,0.00
2022-12-13T04:49:00.869Z,0.00
2022-12-13T05:04:00.729Z,0.00
2022-12-13T05:19:00.790Z,0.00
2022-12-13T05:34:01.341Z,0.08
2022-12-13T05:49:01.051Z,0.18
2022-12-13T06:04:00.814Z,0.00
2022-12-13T06:19:04.253Z,0.00
2022-12-13T06:34:00.909Z,0.00
2022-12-13T06:49:01.128Z,0.00
2022-12-13T07:04:00.916Z,0.09
2022-12-13T07:19:01.644Z,0.05
2022-12-13T07:34:01.154Z,0.00
2022-12-13T07:49:01.899Z,0.00
2022-12-13T08:04:01.224Z,0.00
2022-12-13T08:19:04.339Z,0.00
2022-12-13T08:34:01.184Z,0.00
2022-12-13T08:49:01.306Z,0.00
2022-12-13T09:04:01.291Z,0.00
2022-12-13T09:19:01.275Z,0.01
2022-12-13T09:34:01.287Z,0.08
2022-12-13T09:49:02.196Z,0.00
2022-12-13T10:04:01.206Z,0.01
2022-12-13T10:19:01.436Z,0.41
2022-12-13T10:34:01.432Z,0.42
2022-12-13T10:49:01.387Z,0.38
2022-12-13T11:04:02.076Z,0.40
2022-12-13T11:19:01.451Z,0.67
2022-12-13T11:34:01.415Z,1.09
2022-12-13T11:49:01.561Z,0.46
2022-12-13T12:04:01.727Z,0.47
2022-12-13T12:19:02.046Z,0.36
2022-12-13T12:34:01.765Z,1.17
2022-12-13T12:49:02.621Z,1.19
2022-12-13T13:04:02.033Z,1.50
2022-12-13T13:19:01.453Z,0.81
2022-12-13T13:34:01.474Z,1.20
2022-12-13T13:49:01.445Z,1.53
2022-12-13T14:04:01.507Z,1.23
2022-12-13T14:19:01.500Z,1.42
2022-12-13T14:34:01.551Z,1.70
2022-12-13T14:49:03.806Z,2.74
2022-12-13T15:04:01.505Z,2.25
2022-12-13T15:19:01.804Z,2.45
2022-12-13T15:34:01.591Z,1.68
2022-12-13T15:49:01.362Z,2.21
2022-12-13T16:04:01.308Z,2.49
2022-12-13T16:19:01.327Z,2.34
2022-12-13T16:34:01.530Z,2.18
2022-12-13T16:49:01.427Z,2.94
2022-12-13T17:04:05.424Z,2.43
2022-12-13T17:19:01.621Z,2.55
2022-12-13T17:34:01.620Z,2.83
2022-12-13T17:49:01.586Z,2.96
2022-12-13T18:04:01.467Z,1.91
2022-12-13T18:19:01.575Z,1.24
2022-12-13T18:34:01.547Z,1.66
2022-12-13T18:49:01.442Z,1.56
2022-12-13T19:04:01.530Z,1.05
2022-12-13T19:19:01.563Z,1.53
2022-12-13T19:34:01.497Z,2.32
2022-12-13T19:49:01.650Z,1.67
2022-12-13T20:04:01.667Z,1.89
2022-12-13T20:19:01.556Z,2.13
2022-12-13T20:34:01.471Z,2.89
2022-12-13T20:49:01.760Z,1.82
2022-12-13T21:04:01.527Z,3.00
2022-12-13T21:19:01.677Z,2.48
2022-12-13T21:34:01.671Z,2.08
2022-12-13T21:49:01.579Z,2.01
2022-12-13T22:04:06.683Z,1.76
2022-12-13T22:19:01.735Z,2.01
2022-12-13T22:34:01.433Z,2.32
2022-12-13T22:49:01.733Z,2.25
2022-12-13T23:04:01.829Z,2.67
2022-12-13T23:19:39.192Z,2.69
2022-12-13T23:34:01.500Z,2.02
2022-12-13T23:49:01.573Z,2.38
